Time;durP1;ratioP1;P1;durP2;ratioP2;P2;SDS_P1;SDS_P2;PMS_P1;PMS_P2;Temp;Humidity;BMP_temperature;BMP_pressure;BME280_temperature;BME280_humidity;BME280_pressure;Samples;Min_cycle;Max_cycle;Signal;HPM_P1;HPM_P2
2022/07/14 00:00:06;;;;;;;0.00;0.00;;;18.00;99.90;;;;;;5091739;28;20040;-75
2022/07/14 00:02:32;;;;;;;0.00;0.00;;;18.10;99.90;;;;;;5094830;28;20016;-75
2022/07/14 00:04:59;;;;;;;0.00;0.00;;;18.10;99.90;;;;;;5094928;28;20022;-75
2022/07/14 00:07:25;;;;;;;0.00;0.00;;;18.30;99.90;;;;;;5094796;28;20428;-74
2022/07/14 00:09:51;;;;;;;0.00;0.00;;;18.30;99.90;;;;;;5075235;28;20497;-74
2022/07/14 00:12:17;;;;;;;0.10;0.10;;;18.30;99.90;;;;;;5056428;28;20025;-74
2022/07/14 00:14:46;;;;;;;0.00;0.00;;;18.40;99.90;;;;;;5074953;28;20024;-74
2022/07/14 00:17:18;;;;;;;0.00;0.00;;;18.80;99.90;;;;;;5076281;28;20016;-75
2022/07/14 00:19:49;;;;;;;0.20;0.20;;;18.80;99.90;;;;;;5092797;28;20043;-73
2022/07/14 00:22:16;;;;;;;0.00;0.00;;;19.00;99.90;;;;;;5092094;28;20063;-75
2022/07/14 00:24:42;;;;;;;0.00;0.00;;;19.00;99.90;;;;;;5057227;28;20537;-75
2022/07/14 00:27:08;;;;;;;0.00;0.00;;;19.20;99.90;;;;;;5074525;28;20033;-75
2022/07/14 00:29:37;;;;;;;0.00;0.00;;;19.50;99.90;;;;;;5056393;28;20390;-75
2022/07/14 00:32:06;;;;;;;0.00;0.00;;;19.70;99.90;;;;;;5082544;28;20020;-75
2022/07/14 00:34:32;;;;;;;0.00;0.00;;;20.00;99.90;;;;;;5083588;28;20070;-75
2022/07/14 00:36:58;;;;;;;0.00;0.00;;;20.70;99.90;;;;;;5066814;28;20095;-76
2022/07/14 00:39:26;;;;;;;0.00;0.00;;;21.70;99.90;;;;;;5088594;28;20035;-75
2022/07/14 00:41:52;;;;;;;0.00;0.00;;;22.50;99.90;;;;;;5093931;28;20492;-75
2022/07/14 00:44:18;;;;;;;0.10;0.10;;;23.60;93.60;;;;;;5109635;28;20031;-75
2022/07/14 00:46:44;;;;;;;0.00;0.00;;;24.50;84.60;;;;;;5088012;28;20089;-76
2022/07/14 00:49:10;;;;;;;0.28;0.28;;;25.60;76.20;;;;;;5109906;28;20425;-76
2022/07/14 00:51:36;;;;;;;0.00;0.00;;;26.40;69.10;;;;;;5110974;27;20051;-73
2022/07/14 00:54:03;;;;;;;0.00;0.00;;;26.50;66.90;;;;;;5118664;28;20031;-76
2022/07/14 00:56:29;;;;;;;0.00;0.00;;;26.30;65.30;;;;;;5116093;28;20493;-73
2022/07/14 00:58:55;;;;;;;0.43;0.43;;;26.60;64.70;;;;;;5122626;27;20394;-74
2022/07/14 01:01:21;;;;;;;0.08;0.08;;;26.60;63.10;;;;;;5112295;28;20023;-75
2022/07/14 01:03:47;;;;;;;0.00;0.00;;;26.90;60.50;;;;;;5092206;28;20378;-74
2022/07/14 01:06:13;;;;;;;0.90;0.90;;;27.50;61.70;;;;;;5089418;28;20126;-73
2022/07/14 01:08:39;;;;;;;0.00;0.00;;;28.20;56.50;;;;;;5108201;28;20099;-75
2022/07/14 01:11:09;;;;;;;0.05;0.05;;;28.40;54.20;;;;;;5089588;28;20491;-74
2022/07/14 01:13:36;;;;;;;0.00;0.00;;;29.20;53.40;;;;;;5109575;28;20092;-74
2022/07/14 01:16:04;;;;;;;0.10;0.10;;;29.10;51.80;;;;;;5105917;28;20026;-74
2022/07/14 01:18:31;;;;;;;0.00;0.00;;;29.70;51.60;;;;;;5108474;28;20024;-75
2022/07/14 01:20:57;;;;;;;0.00;0.00;;;30.70;47.90;;;;;;5112298;28;20039;-75
2022/07/14 01:23:23;;;;;;;0.13;0.13;;;31.50;45.60;;;;;;5108741;28;20091;-75
2022/07/14 01:25:49;;;;;;;0.17;0.17;;;31.70;43.90;;;;;;5101627;28;20028;-75
2022/07/14 01:28:15;;;;;;;0.00;0.00;;;32.00;42.60;;;;;;5105004;28;20072;-73
2022/07/14 01:30:41;;;;;;;0.00;0.00;;;32.10;42.80;;;;;;5102009;28;20076;-75
2022/07/14 01:33:07;;;;;;;1.35;0.90;;;31.90;43.50;;;;;;5095682;27;20079;-74
2022/07/14 01:35:33;;;;;;;2.15;2.05;;;31.70;41.20;;;;;;5108330;28;20097;-75
2022/07/14 01:37:59;;;;;;;0.00;0.00;;;30.90;43.20;;;;;;5093334;28;20030;-76
2022/07/14 01:40:25;;;;;;;0.00;0.00;;;30.20;45.30;;;;;;5100744;28;20031;-75
2022/07/14 01:42:51;;;;;;;0.10;0.10;;;29.50;45.50;;;;;;5114065;28;20023;-76
2022/07/14 01:45:17;;;;;;;10.25;5.40;;;28.70;45.80;;;;;;5095668;28;20016;-75
2022/07/14 01:47:44;;;;;;;0.00;0.00;;;28.40;46.70;;;;;;5113946;28;20020;-77
2022/07/14 01:50:10;;;;;;;1.17;1.13;;;27.80;48.50;;;;;;5089553;28;20051;-76
2022/07/14 01:52:36;;;;;;;3.45;2.00;;;27.40;51.10;;;;;;5103548;28;20024;-75
2022/07/14 01:55:02;;;;;;;0.20;0.20;;;26.90;47.80;;;;;;5113558;28;20423;-75
2022/07/14 01:57:28;;;;;;;0.00;0.00;;;26.80;49.30;;;;;;5094722;28;20019;-75
2022/07/14 01:59:54;;;;;;;0.00;0.00;;;26.70;52.60;;;;;;5108268;28;20031;-74
2022/07/14 02:02:20;;;;;;;0.05;0.05;;;26.70;52.30;;;;;;5088993;28;20066;-74
2022/07/14 02:04:47;;;;;;;0.10;0.10;;;27.80;52.90;;;;;;5097857;28;20087;-75
2022/07/14 02:07:13;;;;;;;3.83;1.77;;;27.40;54.30;;;;;;5081801;28;20097;-76
2022/07/14 02:12:23;;;;;;;16.70;2.17;;;27.80;51.90;;;;;;5106401;28;20042;-74
2022/07/14 02:14:49;;;;;;;0.10;0.10;;;28.10;51.90;;;;;;5100621;28;20458;-75
2022/07/14 02:17:15;;;;;;;0.45;0.45;;;28.40;50.00;;;;;;5094538;28;20106;-74
2022/07/14 02:19:41;;;;;;;3.17;3.03;;;28.20;50.50;;;;;;5092065;28;20020;-74
2022/07/14 02:22:08;;;;;;;0.32;0.32;;;28.50;50.60;;;;;;5080453;28;20043;-74
2022/07/14 02:24:35;;;;;;;0.00;0.00;;;29.30;48.50;;;;;;5079089;28;20024;-81
2022/07/14 02:27:01;;;;;;;0.10;0.10;;;29.00;48.50;;;;;;5107551;28;20015;-82
2022/07/14 02:29:27;;;;;;;0.00;0.00;;;29.10;43.80;;;;;;5109993;28;20024;-82
2022/07/14 02:32:20;;;;;;;0.03;0.03;;;30.00;43.10;;;;;;5113702;27;20082;-84
2022/07/14 02:34:46;;;;;;;0.73;0.60;;;31.10;43.30;;;;;;5119502;27;20552;-84
2022/07/14 02:37:14;;;;;;;0.10;0.10;;;30.00;43.80;;;;;;5094488;28;20028;-84
2022/07/14 02:39:40;;;;;;;0.75;0.75;;;30.20;45.00;;;;;;5097642;28;20048;-85
2022/07/14 02:42:06;;;;;;;0.20;0.20;;;31.30;43.40;;;;;;5092399;28;20052;-85
2022/07/14 02:44:32;;;;;;;0.10;0.10;;;31.20;41.50;;;;;;5069835;28;20058;-84
2022/07/14 02:46:58;;;;;;;1.08;1.08;;;30.10;43.40;;;;;;5093229;28;20142;-86
2022/07/14 02:49:24;;;;;;;1.08;0.85;;;30.10;42.90;;;;;;5065170;28;20107;-84
2022/07/14 02:51:50;;;;;;;0.00;0.00;;;29.90;43.60;;;;;;5070965;28;20031;-86
2022/07/14 02:54:17;;;;;;;0.40;0.40;;;31.00;42.40;;;;;;5090546;28;20038;-85
2022/07/14 02:56:43;;;;;;;0.00;0.00;;;31.40;42.40;;;;;;5083430;28;20467;-83
2022/07/14 02:59:09;;;;;;;0.00;0.00;;;31.90;40.50;;;;;;5091713;28;20036;-80
2022/07/14 03:01:35;;;;;;;1.58;1.02;;;33.30;38.50;;;;;;5066727;28;20470;-81
2022/07/14 03:04:01;;;;;;;0.38;0.38;;;32.80;39.00;;;;;;5083766;28;20028;-79
2022/07/14 03:06:27;;;;;;;0.00;0.00;;;32.50;40.10;;;;;;5091344;28;20024;-77
2022/07/14 03:08:53;;;;;;;0.10;0.10;;;32.40;40.70;;;;;;5072608;28;20145;-78
2022/07/14 03:11:20;;;;;;;0.28;0.28;;;32.70;40.40;;;;;;5087090;28;20379;-79
2022/07/14 03:13:46;;;;;;;0.15;0.15;;;30.50;42.10;;;;;;5091022;28;20028;-79
2022/07/14 03:16:12;;;;;;;0.00;0.00;;;30.00;44.50;;;;;;5087197;28;20028;-80
2022/07/14 03:18:42;;;;;;;0.00;0.00;;;31.20;43.40;;;;;;5094305;28;20029;-80
2022/07/14 03:21:09;;;;;;;0.35;0.30;;;30.70;41.00;;;;;;5091214;28;20084;-79
2022/07/14 03:23:36;;;;;;;0.10;0.10;;;29.20;44.00;;;;;;5077264;28;20111;-82
2022/07/14 03:26:03;;;;;;;0.47;0.17;;;28.90;44.10;;;;;;5086245;28;20043;-81
2022/07/14 03:28:29;;;;;;;6.85;6.43;;;28.40;45.30;;;;;;5091861;28;20028;-79
2022/07/14 03:30:56;;;;;;;0.00;0.00;;;28.20;46.70;;;;;;5079514;28;20432;-79
2022/07/14 03:33:24;;;;;;;0.13;0.05;;;28.00;46.20;;;;;;5073761;28;20082;-80
2022/07/14 03:35:50;;;;;;;0.63;0.63;;;28.70;44.60;;;;;;5095054;28;20031;-81
2022/07/14 03:38:17;;;;;;;0.70;0.30;;;29.10;43.70;;;;;;5099764;28;20047;-82
2022/07/14 03:40:43;;;;;;;0.00;0.00;;;29.60;43.20;;;;;;5088041;27;20496;-82
2022/07/14 03:43:09;;;;;;;0.22;0.17;;;29.10;43.50;;;;;;5113405;27;20019;-82
2022/07/14 03:45:35;;;;;;;0.40;0.20;;;28.90;42.60;;;;;;5109771;28;20024;-82
2022/07/14 03:48:07;;;;;;;0.10;0.10;;;29.80;42.20;;;;;;5114253;28;20382;-84
2022/07/14 03:50:45;;;;;;;0.00;0.00;;;29.70;42.10;;;;;;5096133;28;20024;-84
2022/07/14 03:53:11;;;;;;;1.75;0.20;;;31.00;40.70;;;;;;5102467;28;20041;-84
2022/07/14 03:55:37;;;;;;;0.20;0.20;;;31.20;38.90;;;;;;5128461;28;20020;-85
2022/07/14 03:58:03;;;;;;;0.52;0.15;;;30.80;39.90;;;;;;5115672;28;20030;-84
2022/07/14 04:00:29;;;;;;;1.13;0.45;;;30.20;40.90;;;;;;5108209;28;20031;-84
2022/07/14 04:02:56;;;;;;;0.75;0.75;;;29.80;40.30;;;;;;5111890;28;20422;-85
2022/07/14 04:05:22;;;;;;;0.00;0.00;;;28.70;43.80;;;;;;5114107;28;20016;-86
2022/07/14 04:07:49;;;;;;;2.22;1.10;;;28.30;45.50;;;;;;5097679;28;20076;-86
2022/07/14 04:10:16;;;;;;;0.52;0.52;;;28.20;44.90;;;;;;5110065;28;20026;-87
2022/07/14 04:12:42;;;;;;;0.00;0.00;;;28.20;44.40;;;;;;5110811;27;20483;-87
2022/07/14 04:15:08;;;;;;;4.38;1.08;;;28.10;45.00;;;;;;5113671;27;20496;-86
2022/07/14 04:17:34;;;;;;;4.18;0.73;;;28.20;45.00;;;;;;5114125;28;20536;-86
2022/07/14 04:20:00;;;;;;;0.00;0.00;;;28.20;47.00;;;;;;5095818;28;20436;-85
2022/07/14 04:22:27;;;;;;;1.38;1.13;;;28.00;47.30;;;;;;5113216;28;20539;-85
2022/07/14 04:24:53;;;;;;;0.98;0.95;;;27.80;47.90;;;;;;5114348;28;20462;-86
2022/07/14 04:27:19;;;;;;;0.00;0.00;;;27.30;48.90;;;;;;5096059;28;20015;-82
2022/07/14 04:29:46;;;;;;;0.40;0.30;;;27.20;49.20;;;;;;5113998;28;20344;-84
2022/07/14 04:32:12;;;;;;;1.45;0.30;;;27.00;50.10;;;;;;5114382;28;20015;-82
2022/07/14 04:34:39;;;;;;;0.43;0.40;;;27.30;49.90;;;;;;5094977;28;20034;-81
2022/07/14 04:37:05;;;;;;;0.45;0.08;;;27.60;46.60;;;;;;5095097;28;20118;-83
2022/07/14 04:39:31;;;;;;;0.95;0.95;;;27.60;46.00;;;;;;5100855;28;20039;-86
2022/07/14 04:41:57;;;;;;;0.60;0.43;;;27.70;45.50;;;;;;5115228;28;20382;-86
2022/07/14 04:44:23;;;;;;;4.15;2.72;;;27.80;44.80;;;;;;5095411;28;20057;-85
2022/07/14 04:46:49;;;;;;;2.83;1.17;;;27.70;44.80;;;;;;5107936;28;20040;-86
2022/07/14 04:52:02;;;;;;;0.00;0.00;;;27.60;41.00;;;;;;5103877;28;20069;-84
2022/07/14 04:54:38;;;;;;;2.00;1.90;;;27.50;41.90;;;;;;5085432;28;20389;-85
2022/07/14 04:57:04;;;;;;;0.28;0.17;;;27.70;41.60;;;;;;5109548;28;20026;-83
2022/07/14 04:59:31;;;;;;;0.03;0.03;;;28.00;41.80;;;;;;5099060;28;20022;-85
2022/07/14 05:01:57;;;;;;;0.00;0.00;;;27.80;42.00;;;;;;5077352;28;20100;-84
2022/07/14 05:04:23;;;;;;;9.85;7.03;;;28.00;42.60;;;;;;5090672;28;20019;-82
2022/07/14 05:06:49;;;;;;;0.00;0.00;;;27.60;43.20;;;;;;5083127;28;20028;-82
2022/07/14 05:09:19;;;;;;;1.05;0.32;;;27.90;43.60;;;;;;5085549;28;20482;-84
2022/07/14 05:11:45;;;;;;;0.13;0.13;;;27.80;43.40;;;;;;5078231;28;20025;-82
2022/07/14 05:14:12;;;;;;;0.75;0.50;;;27.60;42.90;;;;;;5097705;28;20060;-82
2022/07/14 05:16:38;;;;;;;0.63;0.10;;;27.70;42.50;;;;;;5104651;28;20054;-88
2022/07/14 05:19:05;;;;;;;0.00;0.00;;;27.70;41.40;;;;;;5112556;28;20008;-89
2022/07/14 05:21:31;;;;;;;0.20;0.10;;;27.80;41.70;;;;;;5099996;28;20058;-89
2022/07/14 05:23:57;;;;;;;0.00;0.00;;;27.80;42.20;;;;;;5102578;28;20052;-91
2022/07/14 05:26:24;;;;;;;0.22;0.10;;;27.90;42.00;;;;;;5120300;27;20019;-88
2022/07/14 05:28:50;;;;;;;0.00;0.00;;;28.00;41.40;;;;;;5100436;28;20031;-89
2022/07/14 05:31:16;;;;;;;0.00;0.00;;;28.20;41.20;;;;;;5090361;28;20601;-88
2022/07/14 05:33:42;;;;;;;0.00;0.00;;;28.30;40.90;;;;;;5075585;28;20475;-88
2022/07/14 05:36:08;;;;;;;1.10;1.05;;;28.30;41.80;;;;;;5077177;28;20024;-88
2022/07/14 05:38:34;;;;;;;0.00;0.00;;;28.30;40.30;;;;;;5072118;28;20539;-87
2022/07/14 05:41:01;;;;;;;1.33;0.95;;;28.20;39.80;;;;;;5083885;28;20061;-89
2022/07/14 05:43:28;;;;;;;0.93;0.93;;;28.00;39.80;;;;;;5087700;28;20046;-88
2022/07/14 05:45:54;;;;;;;6.30;1.38;;;28.20;39.90;;;;;;5100817;28;20039;-88
2022/07/14 05:48:20;;;;;;;0.00;0.00;;;28.20;39.30;;;;;;5107908;28;20067;-86
2022/07/14 05:50:46;;;;;;;0.00;0.00;;;28.30;40.00;;;;;;5109552;28;20054;-87
2022/07/14 05:53:12;;;;;;;0.28;0.10;;;28.40;41.50;;;;;;5099945;28;20036;-88
2022/07/14 05:55:38;;;;;;;0.20;0.10;;;28.50;39.80;;;;;;5103746;28;20057;-88
2022/07/14 05:58:05;;;;;;;0.00;0.00;;;28.30;39.60;;;;;;5120690;28;20031;-88
2022/07/14 06:00:31;;;;;;;0.20;0.20;;;28.10;41.10;;;;;;5106372;28;20022;-88
2022/07/14 06:02:57;;;;;;;0.20;0.20;;;28.10;40.90;;;;;;5100676;28;20032;-88
2022/07/14 06:05:23;;;;;;;1.55;1.25;;;28.60;40.10;;;;;;5091445;28;20027;-88
2022/07/14 06:07:52;;;;;;;0.93;0.45;;;29.00;39.30;;;;;;5096722;28;20069;-89
2022/07/14 06:10:18;;;;;;;0.10;0.10;;;28.70;39.30;;;;;;5109026;28;20062;-90
2022/07/14 06:12:44;;;;;;;0.00;0.00;;;28.60;38.90;;;;;;5091969;28;20494;-89
2022/07/14 06:15:10;;;;;;;0.82;0.82;;;28.60;39.00;;;;;;5082758;28;20063;-89
2022/07/14 06:17:36;;;;;;;0.05;0.05;;;28.80;38.40;;;;;;5105979;28;20032;-89
2022/07/14 06:20:07;;;;;;;1.58;1.02;;;29.00;37.70;;;;;;5112466;28;20464;-90
2022/07/14 06:22:38;;;;;;;0.00;0.00;;;29.10;37.20;;;;;;5097888;28;20017;-84
2022/07/14 06:25:06;;;;;;;0.00;0.00;;;29.10;37.40;;;;;;5082039;28;20050;-87
2022/07/14 06:27:32;;;;;;;0.55;0.55;;;29.20;38.50;;;;;;5111130;28;20014;-87
2022/07/14 06:30:01;;;;;;;0.95;0.50;;;29.20;37.60;;;;;;5102534;28;20068;-76
2022/07/14 06:32:27;;;;;;;2.83;2.35;;;29.30;37.70;;;;;;5100981;28;20065;-76
2022/07/14 06:34:53;;;;;;;0.00;0.00;;;29.10;37.50;;;;;;5079863;28;20028;-76
2022/07/14 06:37:19;;;;;;;0.00;0.00;;;29.00;38.00;;;;;;5102514;28;20386;-78
2022/07/14 06:39:45;;;;;;;0.10;0.10;;;29.00;38.70;;;;;;5115730;28;20079;-77
2022/07/14 06:42:13;;;;;;;0.00;0.00;;;29.40;35.70;;;;;;5112372;28;20051;-78
2022/07/14 06:44:40;;;;;;;0.60;0.30;;;29.00;36.20;;;;;;5110931;28;20492;-79
2022/07/14 06:47:06;;;;;;;0.00;0.00;;;29.30;35.50;;;;;;5106053;28;20030;-77
2022/07/14 06:49:32;;;;;;;0.20;0.20;;;29.50;36.00;;;;;;5100329;28;20012;-76
2022/07/14 06:51:58;;;;;;;0.32;0.32;;;29.80;36.20;;;;;;5111610;28;20048;-77
2022/07/14 06:54:25;;;;;;;0.15;0.10;;;29.80;34.50;;;;;;5113078;28;20032;-77
2022/07/14 06:56:51;;;;;;;2.85;0.77;;;29.60;34.90;;;;;;5124015;28;20053;-80
2022/07/14 06:59:18;;;;;;;0.00;0.00;;;29.70;35.00;;;;;;5111257;28;20035;-77
2022/07/14 07:01:46;;;;;;;0.00;0.00;;;29.70;34.90;;;;;;5111678;28;20019;-79
2022/07/14 07:04:18;;;;;;;0.00;0.00;;;29.90;34.70;;;;;;5085406;28;20115;-78
2022/07/14 07:06:44;;;;;;;0.00;0.00;;;30.30;33.80;;;;;;5093379;28;20045;-76
2022/07/14 07:09:15;;;;;;;0.35;0.30;;;30.20;35.00;;;;;;5117520;28;20403;-78
2022/07/14 07:11:43;;;;;;;0.25;0.10;;;30.40;34.60;;;;;;5109611;28;20107;-77
2022/07/14 07:14:09;;;;;;;0.00;0.00;;;30.30;34.00;;;;;;5100146;28;20434;-78
2022/07/14 07:16:35;;;;;;;2.00;1.90;;;30.10;34.80;;;;;;5097357;28;20050;-81
2022/07/14 07:19:03;;;;;;;0.47;0.30;;;30.00;34.90;;;;;;5092533;27;20092;-81
2022/07/14 07:21:32;;;;;;;0.30;0.30;;;30.30;34.70;;;;;;5082051;28;20028;-79
2022/07/14 07:23:58;;;;;;;1.30;1.20;;;30.50;32.70;;;;;;5088645;27;20027;-81
2022/07/14 07:26:25;;;;;;;0.25;0.22;;;30.20;32.70;;;;;;5090232;27;20024;-81
2022/07/14 07:28:54;;;;;;;0.00;0.00;;;30.10;34.40;;;;;;5101022;27;20173;-80
2022/07/14 07:31:20;;;;;;;0.10;0.10;;;30.20;34.60;;;;;;5114699;27;20158;-79
2022/07/14 07:33:47;;;;;;;1.35;1.25;;;30.30;34.70;;;;;;5093761;27;20031;-81
2022/07/14 07:36:13;;;;;;;0.00;0.00;;;30.00;34.80;;;;;;5106265;27;20114;-79
2022/07/14 07:38:39;;;;;;;0.05;0.05;;;29.80;35.30;;;;;;5103269;28;20073;-80
2022/07/14 07:41:05;;;;;;;0.20;0.10;;;30.10;34.10;;;;;;5105680;28;20024;-79
2022/07/14 07:43:32;;;;;;;1.38;0.98;;;30.30;34.70;;;;;;5107734;28;20029;-82
2022/07/14 07:45:58;;;;;;;0.82;0.17;;;30.30;34.90;;;;;;5104411;28;20016;-80
2022/07/14 07:48:24;;;;;;;0.00;0.00;;;30.40;32.80;;;;;;5105030;28;20052;-80
2022/07/14 07:50:50;;;;;;;0.13;0.13;;;30.20;33.10;;;;;;5109944;27;20104;-81
2022/07/14 07:53:16;;;;;;;0.00;0.00;;;30.10;33.50;;;;;;5111125;28;20020;-81
2022/07/14 07:55:42;;;;;;;0.00;0.00;;;30.20;32.70;;;;;;5106690;28;20016;-81
2022/07/14 07:58:08;;;;;;;0.30;0.13;;;30.30;33.80;;;;;;5091606;28;20082;-82
2022/07/14 08:00:35;;;;;;;3.83;0.52;;;30.70;32.70;;;;;;5106271;28;20339;-85
2022/07/14 08:03:02;;;;;;;0.10;0.10;;;30.80;31.50;;;;;;5096232;28;20092;-87
2022/07/14 08:05:30;;;;;;;0.90;0.47;;;30.80;32.40;;;;;;5099671;27;20313;-88
2022/07/14 08:07:56;;;;;;;0.00;0.00;;;30.70;32.30;;;;;;5116166;27;20110;-82
2022/07/14 08:10:22;;;;;;;0.00;0.00;;;30.20;32.60;;;;;;5110480;27;20031;-84
2022/07/14 08:12:48;;;;;;;0.00;0.00;;;30.50;31.60;;;;;;5119059;27;20028;-86
2022/07/14 08:15:16;;;;;;;0.00;0.00;;;30.60;31.50;;;;;;5101587;27;20039;-87
2022/07/14 08:17:42;;;;;;;0.00;0.00;;;30.10;32.60;;;;;;5075041;27;20554;-86
2022/07/14 08:20:10;;;;;;;0.28;0.22;;;30.20;31.60;;;;;;5089573;28;20039;-84
2022/07/14 08:22:38;;;;;;;0.10;0.10;;;30.50;32.30;;;;;;5085119;27;20103;-86
2022/07/14 08:25:07;;;;;;;0.65;0.63;;;30.60;30.50;;;;;;5104745;27;20036;-87
2022/07/14 08:27:34;;;;;;;0.00;0.00;;;30.90;30.10;;;;;;5094051;28;20102;-87
2022/07/14 08:30:00;;;;;;;0.45;0.45;;;30.80;30.40;;;;;;5100160;28;20024;-88
2022/07/14 08:32:35;;;;;;;0.00;0.00;;;30.90;30.60;;;;;;5116698;28;20027;-80
2022/07/14 08:35:02;;;;;;;0.10;0.10;;;31.00;30.00;;;;;;5113823;27;20023;-79
2022/07/14 08:37:29;;;;;;;0.10;0.10;;;31.20;30.40;;;;;;5136807;27;20102;-82
2022/07/14 08:39:55;;;;;;;0.30;0.20;;;31.20;30.50;;;;;;5092466;28;20044;-85
2022/07/14 08:42:22;;;;;;;0.10;0.10;;;31.30;30.80;;;;;;5111497;27;20034;-82
2022/07/14 08:44:48;;;;;;;0.20;0.15;;;31.50;30.20;;;;;;5091012;27;20078;-84
2022/07/14 08:47:15;;;;;;;0.55;0.35;;;31.50;30.40;;;;;;5114071;27;20030;-80
2022/07/14 08:49:43;;;;;;;0.38;0.03;;;31.20;30.60;;;;;;5115259;27;20015;-81
2022/07/14 08:52:11;;;;;;;1.08;0.20;;;31.20;30.00;;;;;;5108349;27;20053;-85
2022/07/14 08:54:39;;;;;;;2.20;0.20;;;31.00;30.00;;;;;;5110635;27;20034;-84
2022/07/14 08:57:05;;;;;;;0.10;0.03;;;31.00;29.70;;;;;;5109435;27;20031;-83
2022/07/14 08:59:31;;;;;;;0.75;0.20;;;31.00;29.80;;;;;;5112425;27;20039;-84
2022/07/14 09:01:58;;;;;;;0.00;0.00;;;31.10;30.00;;;;;;5090618;27;20776;-80
2022/07/14 09:04:24;;;;;;;0.00;0.00;;;31.20;29.50;;;;;;5112585;27;20020;-78
2022/07/14 09:06:55;;;;;;;0.00;0.00;;;31.30;30.70;;;;;;5104454;27;20018;-83
2022/07/14 09:09:24;;;;;;;0.00;0.00;;;31.20;30.10;;;;;;5108099;27;20019;-85
2022/07/14 09:12:01;;;;;;;0.00;0.00;;;31.40;30.10;;;;;;5095616;28;20031;-80
2022/07/14 09:15:44;;;;;;;0.00;0.00;;;31.40;29.70;;;;;;5109140;28;20023;-82
2022/07/14 09:17:17;;;;;;;0.13;0.13;;;31.60;29.70;;;;;;5125988;28;20020;-77
2022/07/14 09:20:10;;;;;;;1.35;1.27;;;31.50;28.80;;;;;;5089877;27;20031;-78
2022/07/14 09:22:42;;;;;;;0.30;0.10;;;31.20;29.70;;;;;;5088570;27;20403;-78
2022/07/14 09:25:15;;;;;;;0.00;0.00;;;31.10;30.00;;;;;;5112050;27;20102;-81
2022/07/14 09:27:45;;;;;;;0.00;0.00;;;31.20;30.30;;;;;;5108626;28;20038;-80
2022/07/14 09:30:12;;;;;;;2.17;0.95;;;31.20;29.70;;;;;;5104145;27;20501;-77
2022/07/14 09:32:46;;;;;;;0.00;0.00;;;31.30;29.10;;;;;;5099675;27;20032;-81
2022/07/14 09:35:18;;;;;;;0.10;0.10;;;31.20;28.90;;;;;;5097303;28;20466;-76
2022/07/14 09:37:45;;;;;;;0.00;0.00;;;31.20;29.40;;;;;;5102748;28;20055;-80
2022/07/14 09:40:19;;;;;;;0.00;0.00;;;31.40;29.20;;;;;;5095530;28;20081;-80
2022/07/14 09:42:47;;;;;;;0.73;0.25;;;31.70;29.80;;;;;;5096633;28;20016;-85
2022/07/14 09:45:14;;;;;;;0.20;0.10;;;31.70;28.60;;;;;;5099889;28;20478;-82
2022/07/14 09:47:53;;;;;;;0.00;0.00;;;31.50;28.80;;;;;;5104367;28;20052;-84
2022/07/14 09:50:40;;;;;;;0.10;0.10;;;31.70;29.20;;;;;;5114810;27;20087;-89
2022/07/14 09:53:36;;;;;;;0.00;0.00;;;31.70;29.30;;;;;;5104489;28;20103;-81
2022/07/14 09:56:07;;;;;;;0.00;0.00;;;31.30;29.30;;;;;;5086408;27;20120;-84
2022/07/14 09:58:55;;;;;;;0.00;0.00;;;31.40;29.70;;;;;;5080531;28;20024;-86
2022/07/14 10:01:24;;;;;;;0.00;0.00;;;31.50;29.40;;;;;;5079174;28;20024;-81
2022/07/14 10:03:53;;;;;;;0.00;0.00;;;31.50;28.70;;;;;;5104915;28;20028;-77
2022/07/14 10:06:21;;;;;;;0.00;0.00;;;31.50;29.20;;;;;;5098501;28;20019;-80
2022/07/14 10:08:53;;;;;;;0.00;0.00;;;31.30;29.20;;;;;;5107295;28;20031;-77
2022/07/14 10:11:20;;;;;;;0.13;0.13;;;31.50;29.40;;;;;;5075367;28;20024;-81
2022/07/14 10:13:46;;;;;;;0.00;0.00;;;31.50;29.10;;;;;;5101368;28;20024;-80
2022/07/14 10:16:13;;;;;;;0.10;0.10;;;31.50;29.60;;;;;;5078891;28;20039;-78
2022/07/14 10:18:45;;;;;;;0.00;0.00;;;31.50;29.20;;;;;;5097157;28;20097;-77
2022/07/14 10:21:11;;;;;;;0.10;0.10;;;31.60;28.40;;;;;;5084807;28;20020;-77
2022/07/14 10:23:38;;;;;;;0.32;0.32;;;31.50;28.30;;;;;;5105220;28;20537;-77
2022/07/14 10:26:10;;;;;;;1.75;0.98;;;31.50;28.80;;;;;;5085230;28;20031;-77
2022/07/14 10:28:39;;;;;;;0.00;0.00;;;31.50;29.10;;;;;;5082187;28;20199;-77
2022/07/14 10:31:35;;;;;;;0.10;0.10;;;31.50;29.30;;;;;;5106038;28;20031;-78
2022/07/14 10:34:27;;;;;;;0.00;0.00;;;31.40;28.80;;;;;;5095589;28;20028;-78
2022/07/14 10:37:07;;;;;;;0.00;0.00;;;31.20;28.70;;;;;;5097340;28;20020;-79
2022/07/14 10:39:56;;;;;;;0.00;0.00;;;31.00;29.20;;;;;;5087920;28;20123;-76
2022/07/14 10:42:23;;;;;;;0.30;0.30;;;31.20;29.60;;;;;;5069632;28;20027;-77
2022/07/14 10:44:50;;;;;;;0.00;0.00;;;31.30;29.50;;;;;;5072115;28;20162;-77
2022/07/14 10:47:18;;;;;;;0.75;0.10;;;31.20;29.90;;;;;;5085535;28;20545;-76
2022/07/14 10:50:02;;;;;;;0.03;0.03;;;31.30;29.80;;;;;;5077699;28;20052;-77
2022/07/14 10:52:30;;;;;;;0.10;0.10;;;31.30;30.30;;;;;;5086526;28;20020;-77
2022/07/14 10:55:17;;;;;;;0.22;0.20;;;31.20;30.10;;;;;;5065567;28;20031;-76
2022/07/14 10:58:05;;;;;;;0.00;0.00;;;31.30;30.10;;;;;;5070834;28;20038;-74
2022/07/14 11:00:44;;;;;;;0.65;0.38;;;31.20;29.90;;;;;;5086505;28;20111;-77
2022/07/14 11:03:38;;;;;;;0.00;0.00;;;31.00;30.00;;;;;;5058957;28;20032;-76
2022/07/14 11:06:11;;;;;;;0.10;0.10;;;30.90;30.00;;;;;;5093896;28;20020;-77
2022/07/14 11:09:16;;;;;;;0.00;0.00;;;30.90;29.70;;;;;;5067392;28;20138;-80
2022/07/14 11:12:12;;;;;;;0.00;0.00;;;30.80;29.80;;;;;;5068616;28;20126;-76
2022/07/14 11:14:41;;;;;;;0.00;0.00;;;30.80;30.00;;;;;;5079212;28;20490;-75
2022/07/14 11:17:08;;;;;;;0.00;0.00;;;30.80;30.00;;;;;;5066370;28;20047;-76
2022/07/14 11:19:37;;;;;;;0.00;0.00;;;30.90;30.00;;;;;;5079524;28;20036;-80
2022/07/14 11:22:21;;;;;;;0.05;0.05;;;31.10;30.40;;;;;;5084793;28;20032;-78
2022/07/14 11:24:48;;;;;;;0.32;0.32;;;31.20;29.60;;;;;;5060112;28;20542;-79
2022/07/14 11:27:41;;;;;;;0.05;0.05;;;31.20;29.80;;;;;;5083609;28;20115;-79
2022/07/14 11:30:24;;;;;;;3.13;0.65;;;31.20;30.00;;;;;;5083485;28;20578;-79
2022/07/14 11:33:11;;;;;;;0.10;0.10;;;30.90;29.70;;;;;;5080631;28;20032;-77
2022/07/14 11:38:43;;;;;;;0.00;0.00;;;30.90;29.80;;;;;;5093830;28;20166;-80
2022/07/14 11:41:15;;;;;;;0.00;0.00;;;30.90;30.00;;;;;;5101010;27;20035;-77
2022/07/14 11:43:50;;;;;;;0.10;0.10;;;30.90;30.00;;;;;;5103143;27;20024;-77
2022/07/14 11:46:21;;;;;;;0.00;0.00;;;31.00;29.50;;;;;;5099732;27;20120;-76
2022/07/14 11:48:51;;;;;;;0.00;0.00;;;31.00;29.90;;;;;;5087672;28;20465;-75
2022/07/14 11:51:27;;;;;;;0.00;0.00;;;30.80;29.40;;;;;;5108031;27;20219;-75
2022/07/14 11:54:01;;;;;;;0.70;0.52;;;30.80;29.60;;;;;;5082255;28;20130;-76
2022/07/14 11:56:29;;;;;;;0.03;0.00;;;30.90;30.30;;;;;;5100592;28;20032;-79
2022/07/14 11:59:03;;;;;;;0.00;0.00;;;30.80;29.90;;;;;;5097571;28;20024;-80
2022/07/14 12:01:42;;;;;;;0.00;0.00;;;30.80;29.80;;;;;;5099470;28;20038;-78
2022/07/14 12:04:20;;;;;;;0.00;0.00;;;30.70;29.50;;;;;;5104672;27;20046;-79
2022/07/14 12:06:47;;;;;;;0.00;0.00;;;30.70;29.50;;;;;;5107810;27;20016;-78
2022/07/14 12:09:26;;;;;;;0.00;0.00;;;30.90;29.50;;;;;;5105383;27;20024;-77
2022/07/14 12:11:53;;;;;;;0.00;0.00;;;30.90;29.60;;;;;;5099532;27;20071;-77
2022/07/14 12:14:20;;;;;;;0.00;0.00;;;31.00;29.90;;;;;;5102601;27;20111;-76
2022/07/14 12:16:47;;;;;;;0.00;0.00;;;31.10;29.60;;;;;;5109825;28;20023;-77
2022/07/14 12:19:14;;;;;;;0.00;0.00;;;31.10;29.60;;;;;;5109669;28;20031;-81
2022/07/14 12:21:40;;;;;;;0.00;0.00;;;30.90;29.60;;;;;;5102928;28;20020;-78
2022/07/14 12:24:11;;;;;;;0.00;0.00;;;30.90;29.60;;;;;;5106278;28;20026;-77
2022/07/14 12:26:37;;;;;;;0.00;0.00;;;30.80;29.80;;;;;;5108135;27;20501;-76
2022/07/14 12:29:05;;;;;;;0.00;0.00;;;30.80;29.60;;;;;;5113303;27;20090;-77
2022/07/14 12:31:39;;;;;;;0.13;0.10;;;30.80;29.40;;;;;;5094268;27;20023;-77
2022/07/14 12:34:05;;;;;;;0.00;0.00;;;30.80;29.40;;;;;;5125961;27;20027;-77
2022/07/14 12:36:32;;;;;;;0.00;0.00;;;30.70;29.40;;;;;;5110894;27;20024;-78
2022/07/14 12:38:59;;;;;;;0.00;0.00;;;30.60;29.40;;;;;;5114334;28;20055;-78
2022/07/14 12:41:26;;;;;;;0.00;0.00;;;30.60;29.20;;;;;;5110984;28;20028;-76
2022/07/14 12:43:56;;;;;;;0.20;0.10;;;30.60;29.30;;;;;;5089107;28;20115;-77
2022/07/14 12:46:23;;;;;;;0.00;0.00;;;30.60;29.30;;;;;;5111847;27;20458;-77
2022/07/14 12:48:49;;;;;;;0.08;0.08;;;30.70;29.50;;;;;;5124490;27;20027;-77
2022/07/14 12:51:22;;;;;;;0.00;0.00;;;30.60;29.90;;;;;;5095721;27;20073;-77
2022/07/14 12:54:31;;;;;;;0.00;0.00;;;30.50;30.00;;;;;;5094172;28;20036;-77
2022/07/14 12:56:57;;;;;;;0.00;0.00;;;30.50;29.80;;;;;;5094193;28;20048;-78
2022/07/14 12:59:34;;;;;;;0.20;0.20;;;30.50;30.10;;;;;;5105008;27;20070;-75
2022/07/14 13:02:01;;;;;;;0.40;0.13;;;30.40;30.60;;;;;;5129545;27;20095;-77
2022/07/14 13:04:38;;;;;;;0.35;0.25;;;30.50;29.60;;;;;;5109864;27;20045;-77